AYMH/HGU METAR and TAF weather

Enter ICAO airport designator
Station Type Date Time Source
AYMH METAR 2018/12/10 20:00 UTC NOAA

AYMH 102000Z 00000KT 9999 FG OVC000 15/15 Q1018=


Station Type Date Time Source
AYMH Decoded METAR 2018/12/10 20:00 UTC NOAA

Station name not available
Dec 10, 2018 - 03:00 PM EST / 2018.12.10 2000 UTC
Wind: Calm:0
Visibility: greater than 7 mile(s):0
Sky conditions: overcast
Weather: fog
Temperature: 59 F (15 C)
Dew Point: 59 F (15 C)
Relative Humidity: 100%
Pressure (altimeter): 30.06 in. Hg (1018 hPa)
ob: AYMH 102000Z 00000KT 9999 FG OVC000 15/15 Q1018=
cycle: 20

Station Type Date Time Source
AYMH TAF UTC NOAA

Error!


Example: see airport list